Time;durP1;ratioP1;P1;durP2;ratioP2;P2;SDS_P1;SDS_P2;PMS_P1;PMS_P2;Temp;Humidity;BMP_temperature;BMP_pressure;BME280_temperature;BME280_humidity;BME280_pressure;Samples;Min_cycle;Max_cycle;Signal;HPM_P1;HPM_P2
2022/05/19 00:01:18;;;;;;;6.03;4.70;;;22.10;1.00;;;;;;5027377;28;20443;-69
2022/05/19 00:03:43;;;;;;;7.60;5.00;;;22.10;1.00;;;;;;5028162;28;20408;-69
2022/05/19 00:06:11;;;;;;;7.27;4.70;;;22.10;1.00;;;;;;5026543;28;20665;-69
2022/05/19 00:08:37;;;;;;;7.00;4.90;;;22.10;1.00;;;;;;5028728;28;20193;-69
2022/05/19 00:11:08;;;;;;;6.83;4.70;;;22.00;1.00;;;;;;5026672;28;20424;-70
2022/05/19 00:13:34;;;;;;;8.17;4.87;;;22.00;1.00;;;;;;5029045;28;20450;-70
2022/05/19 00:15:59;;;;;;;5.00;4.40;;;22.00;1.00;;;;;;5027199;28;20512;-69
2022/05/19 00:18:25;;;;;;;8.17;5.10;;;21.90;1.00;;;;;;5027840;28;20866;-69
2022/05/19 00:20:51;;;;;;;6.97;4.70;;;21.90;1.00;;;;;;5025309;28;20189;-68
2022/05/19 00:23:17;;;;;;;7.00;4.40;;;21.90;1.00;;;;;;5023661;28;20435;-69
2022/05/19 00:25:44;;;;;;;8.63;4.67;;;21.90;1.00;;;;;;5015512;28;20274;-70
2022/05/19 00:28:10;;;;;;;7.30;4.77;;;21.90;1.00;;;;;;5011835;28;20473;-69
2022/05/19 00:30:37;;;;;;;7.33;4.93;;;21.80;1.00;;;;;;5039370;28;20422;-68
2022/05/19 00:33:03;;;;;;;5.40;4.50;;;21.80;1.00;;;;;;5019803;28;20522;-70
2022/05/19 00:35:28;;;;;;;8.03;4.63;;;22.80;1.00;;;;;;5027183;28;20947;-69
2022/05/19 00:37:54;;;;;;;6.90;5.00;;;22.30;1.00;;;;;;5018857;28;20466;-70
2022/05/19 00:40:21;;;;;;;6.90;4.97;;;21.70;1.00;;;;;;5028599;28;20504;-69
2022/05/19 00:42:47;;;;;;;5.10;4.50;;;21.60;1.00;;;;;;5025226;28;20262;-69
2022/05/19 00:45:20;;;;;;;5.07;4.57;;;21.60;1.00;;;;;;5027917;28;20475;-70
2022/05/19 00:48:05;;;;;;;5.93;4.60;;;21.60;1.00;;;;;;5025474;28;20205;-68
2022/05/19 00:50:45;;;;;;;7.00;4.83;;;21.60;1.00;;;;;;5026407;28;20420;-69
2022/05/19 00:53:54;;;;;;;5.80;4.77;;;21.60;1.00;;;;;;5018813;28;20445;-70
2022/05/19 00:56:40;;;;;;;5.70;4.40;;;21.50;1.00;;;;;;5019985;28;20420;-69
2022/05/19 00:59:10;;;;;;;5.67;4.90;;;21.60;1.00;;;;;;5025979;28;20414;-68
2022/05/19 01:01:39;;;;;;;7.00;4.53;;;21.40;1.00;;;;;;5024040;28;20438;-68
2022/05/19 01:04:27;;;;;;;11.67;4.87;;;21.40;1.00;;;;;;5021150;28;20596;-69
2022/05/19 01:06:58;;;;;;;7.83;4.60;;;21.40;1.00;;;;;;5025120;28;20471;-69
2022/05/19 01:09:24;;;;;;;5.47;4.43;;;21.30;1.00;;;;;;5027499;28;20448;-68
2022/05/19 01:11:55;;;;;;;6.30;4.37;;;21.40;1.00;;;;;;5019889;28;21032;-69
2022/05/19 01:14:21;;;;;;;5.40;4.60;;;21.30;1.00;;;;;;5025669;28;20906;-70
2022/05/19 01:16:47;;;;;;;7.63;4.57;;;21.30;1.00;;;;;;5005331;28;20486;-69
2022/05/19 01:19:36;;;;;;;6.63;4.80;;;22.80;1.00;;;;;;5016505;28;20917;-69
2022/05/19 01:22:25;;;;;;;6.87;4.90;;;21.30;1.00;;;;;;5017629;28;20184;-69
2022/05/19 01:25:20;;;;;;;6.13;4.70;;;21.20;1.00;;;;;;5026086;28;20495;-68
2022/05/19 01:27:46;;;;;;;5.27;4.50;;;21.20;1.00;;;;;;5018973;28;20466;-68
2022/05/19 01:30:12;;;;;;;6.93;4.60;;;21.10;1.00;;;;;;5027618;28;20408;-68
2022/05/19 01:32:38;;;;;;;6.50;4.47;;;21.10;1.00;;;;;;5022584;28;20173;-69
2022/05/19 01:35:05;;;;;;;6.40;4.53;;;21.10;1.00;;;;;;5022931;28;21044;-68
2022/05/19 01:37:30;;;;;;;5.00;4.47;;;21.10;1.00;;;;;;5022787;28;20623;-69
2022/05/19 01:40:11;;;;;;;7.10;4.83;;;21.00;1.00;;;;;;5027372;28;20412;-68
2022/05/19 01:42:46;;;;;;;5.70;4.57;;;21.00;1.00;;;;;;5023415;28;20195;-68
2022/05/19 01:45:47;;;;;;;5.53;4.20;;;20.90;1.00;;;;;;5027842;28;20436;-69
2022/05/19 01:48:13;;;;;;;5.80;4.80;;;20.90;1.00;;;;;;5022092;28;20478;-69
2022/05/19 01:50:50;;;;;;;7.70;4.53;;;21.50;1.00;;;;;;5022667;28;20431;-69
2022/05/19 01:53:24;;;;;;;10.30;5.07;;;20.90;1.00;;;;;;5023130;28;20308;-68
2022/05/19 01:56:30;;;;;;;6.23;4.87;;;20.80;1.00;;;;;;5027908;28;20472;-68
2022/05/19 01:59:21;;;;;;;10.70;5.10;;;20.80;1.00;;;;;;5024922;28;20439;-69
2022/05/19 02:01:54;;;;;;;8.00;4.77;;;20.80;1.00;;;;;;5017676;28;20440;-68
2022/05/19 02:04:29;;;;;;;6.30;4.50;;;20.70;1.00;;;;;;5025217;28;20443;-69
2022/05/19 02:07:07;;;;;;;6.97;4.83;;;20.70;1.00;;;;;;5024331;28;20938;-69
2022/05/19 02:09:39;;;;;;;8.43;4.70;;;20.70;1.00;;;;;;5027053;28;20450;-68
2022/05/19 02:12:05;;;;;;;10.70;4.90;;;20.70;1.00;;;;;;5024621;28;20432;-68
2022/05/19 02:14:48;;;;;;;5.73;4.53;;;20.30;1.00;;;;;;5026166;28;20728;-69
2022/05/19 02:17:17;;;;;;;5.30;4.50;;;20.60;1.00;;;;;;5026706;28;20474;-68
2022/05/19 02:19:46;;;;;;;9.53;5.00;;;20.60;1.00;;;;;;5031062;28;20431;-68
2022/05/19 02:22:18;;;;;;;5.43;4.70;;;20.60;1.00;;;;;;5026818;28;20447;-68
2022/05/19 02:25:02;;;;;;;7.60;5.07;;;20.60;1.00;;;;;;5020877;28;20847;-69
2022/05/19 02:27:37;;;;;;;5.00;4.50;;;20.50;1.00;;;;;;5019991;28;20503;-68
2022/05/19 02:30:07;;;;;;;9.73;4.80;;;20.50;1.00;;;;;;5028361;28;20419;-69
2022/05/19 02:32:35;;;;;;;6.77;4.53;;;20.50;1.00;;;;;;5017761;28;20448;-70
2022/05/19 02:35:01;;;;;;;5.17;4.37;;;20.50;1.00;;;;;;5022961;28;20400;-68
2022/05/19 02:37:26;;;;;;;6.20;4.43;;;20.90;1.00;;;;;;5027963;28;20474;-69
2022/05/19 02:39:52;;;;;;;8.93;5.27;;;20.50;1.00;;;;;;5024120;28;20563;-69
2022/05/19 02:42:17;;;;;;;5.87;4.70;;;20.50;1.00;;;;;;5029849;28;20268;-69
2022/05/19 02:44:43;;;;;;;7.20;4.60;;;20.50;1.00;;;;;;5029780;28;20206;-68
2022/05/19 02:47:08;;;;;;;10.70;4.83;;;20.50;1.00;;;;;;5029583;28;20201;-69
2022/05/19 02:49:34;;;;;;;6.73;4.50;;;20.50;1.00;;;;;;5029364;28;20260;-69
2022/05/19 02:51:59;;;;;;;7.37;4.43;;;20.40;1.00;;;;;;5022152;28;20638;-68
2022/05/19 02:54:25;;;;;;;6.27;4.70;;;20.40;1.00;;;;;;5029575;28;20173;-69
2022/05/19 02:56:50;;;;;;;7.70;4.97;;;20.40;1.00;;;;;;5022632;28;20185;-69
2022/05/19 02:59:16;;;;;;;9.70;4.80;;;20.40;1.00;;;;;;5028482;28;20288;-68
2022/05/19 03:01:42;;;;;;;9.10;4.50;;;20.30;1.00;;;;;;5028503;28;20496;-69
2022/05/19 03:04:08;;;;;;;7.30;5.43;;;20.30;1.00;;;;;;5029400;28;20177;-69
2022/05/19 03:06:34;;;;;;;6.07;4.40;;;20.30;1.00;;;;;;5020569;28;20656;-69
2022/05/19 03:08:59;;;;;;;7.87;4.40;;;20.30;1.00;;;;;;5028551;28;20220;-68
2022/05/19 03:11:25;;;;;;;6.30;4.27;;;20.70;1.00;;;;;;5026538;28;20456;-68
2022/05/19 03:13:50;;;;;;;7.30;4.10;;;20.30;1.00;;;;;;5030519;28;20189;-68
2022/05/19 03:16:16;;;;;;;9.73;5.10;;;20.20;1.00;;;;;;5027775;28;20180;-68
2022/05/19 03:18:41;;;;;;;5.03;4.20;;;20.20;1.00;;;;;;5027211;28;20228;-69
2022/05/19 03:21:07;;;;;;;6.73;4.40;;;20.30;1.00;;;;;;5022774;28;20182;-68
2022/05/19 03:23:33;;;;;;;5.50;4.40;;;20.10;1.00;;;;;;5026875;28;20181;-69
2022/05/19 03:25:58;;;;;;;6.13;4.40;;;20.10;1.00;;;;;;5026816;28;20177;-69
2022/05/19 03:28:24;;;;;;;7.33;4.60;;;20.10;1.00;;;;;;5026313;28;20275;-69
2022/05/19 03:30:49;;;;;;;7.97;4.80;;;20.40;1.00;;;;;;5026760;28;20185;-69
2022/05/19 03:33:15;;;;;;;5.37;4.07;;;20.10;1.00;;;;;;5025509;28;20178;-69
2022/05/19 03:35:42;;;;;;;7.67;4.60;;;20.10;1.00;;;;;;5027038;28;20194;-69
2022/05/19 03:38:08;;;;;;;9.50;4.67;;;20.10;1.00;;;;;;5026967;28;20247;-69
2022/05/19 03:40:34;;;;;;;9.17;4.40;;;20.10;1.00;;;;;;5025464;28;20443;-69
2022/05/19 03:42:59;;;;;;;7.13;4.60;;;20.10;1.00;;;;;;5030524;28;20447;-69
2022/05/19 03:45:25;;;;;;;6.43;4.30;;;20.10;1.00;;;;;;5025636;28;20299;-69
2022/05/19 03:47:51;;;;;;;5.63;4.33;;;20.10;1.00;;;;;;5025381;28;20305;-69
2022/05/19 03:50:16;;;;;;;8.97;4.37;;;20.00;1.00;;;;;;5025090;28;20344;-67
2022/05/19 03:52:43;;;;;;;8.70;4.57;;;19.90;1.00;;;;;;5025035;28;20188;-69
2022/05/19 03:55:11;;;;;;;8.20;4.47;;;20.00;1.00;;;;;;5026677;28;20633;-69
2022/05/19 03:57:37;;;;;;;6.83;4.10;;;19.90;1.00;;;;;;5027723;28;20510;-67
2022/05/19 04:00:05;;;;;;;9.00;4.10;;;19.90;1.00;;;;;;5026613;28;20546;-69
2022/05/19 04:02:30;;;;;;;7.33;3.87;;;19.90;1.00;;;;;;5026070;28;20787;-69
2022/05/19 04:04:56;;;;;;;5.67;4.53;;;19.80;1.00;;;;;;5028321;28;20613;-69
2022/05/19 04:07:22;;;;;;;4.70;3.70;;;19.90;1.00;;;;;;5025899;28;20539;-69
2022/05/19 04:09:47;;;;;;;6.83;4.03;;;19.90;1.00;;;;;;5019550;28;20301;-70
2022/05/19 04:12:18;;;;;;;6.70;4.50;;;19.90;1.00;;;;;;5024518;28;20535;-69
2022/05/19 04:14:44;;;;;;;8.60;4.13;;;20.10;1.00;;;;;;5026735;28;20239;-69
2022/05/19 04:17:09;;;;;;;6.20;3.83;;;20.00;1.00;;;;;;5026413;28;20876;-68
2022/05/19 04:19:35;;;;;;;5.70;4.13;;;20.00;1.00;;;;;;5025647;28;20600;-69
2022/05/19 04:22:01;;;;;;;7.80;4.30;;;20.00;1.00;;;;;;5025469;28;20193;-69
2022/05/19 04:24:27;;;;;;;5.60;3.93;;;20.00;1.00;;;;;;5027446;28;20516;-69
2022/05/19 04:26:53;;;;;;;5.60;4.20;;;20.10;1.00;;;;;;5025746;28;20633;-69
2022/05/19 04:29:18;;;;;;;6.20;4.33;;;20.10;1.00;;;;;;5017451;28;20185;-69
2022/05/19 04:31:44;;;;;;;6.43;4.13;;;20.10;1.00;;;;;;5025465;28;20174;-68
2022/05/19 04:34:09;;;;;;;6.80;4.17;;;20.10;1.00;;;;;;5017794;28;20661;-69
2022/05/19 04:36:35;;;;;;;5.43;4.40;;;20.10;1.00;;;;;;5025867;28;20248;-68
2022/05/19 04:39:01;;;;;;;5.13;4.33;;;20.40;1.00;;;;;;5021936;28;20335;-68
2022/05/19 04:41:26;;;;;;;10.83;4.13;;;20.10;1.00;;;;;;5020875;28;20645;-69
2022/05/19 04:43:52;;;;;;;7.50;4.20;;;20.10;1.00;;;;;;5008391;28;20186;-70
2022/05/19 04:46:18;;;;;;;6.77;4.63;;;20.10;1.00;;;;;;5016242;28;20517;-69
2022/05/19 04:48:43;;;;;;;5.37;3.77;;;20.10;1.00;;;;;;5024436;28;20521;-68
2022/05/19 04:51:09;;;;;;;5.77;4.17;;;20.10;1.00;;;;;;5026377;28;20648;-69
2022/05/19 04:53:34;;;;;;;5.33;4.30;;;20.30;1.00;;;;;;5020610;28;20186;-69
2022/05/19 04:56:00;;;;;;;7.30;4.00;;;20.10;1.00;;;;;;5018097;28;20216;-70
2022/05/19 04:58:26;;;;;;;7.00;4.10;;;20.10;1.00;;;;;;5018634;28;20201;-70
2022/05/19 05:00:52;;;;;;;6.37;3.90;;;20.10;1.00;;;;;;5015526;28;20185;-69
2022/05/19 05:03:18;;;;;;;6.53;4.10;;;20.20;1.00;;;;;;5020084;28;20712;-70
2022/05/19 05:05:44;;;;;;;7.30;4.37;;;20.20;1.00;;;;;;5020059;28;20262;-69
2022/05/19 05:08:09;;;;;;;5.00;3.83;;;20.20;1.00;;;;;;5017443;28;20488;-69
2022/05/19 05:10:35;;;;;;;7.50;4.33;;;20.20;1.00;;;;;;5023380;28;20424;-69
2022/05/19 05:13:09;;;;;;;12.33;4.00;;;20.20;1.00;;;;;;5005750;28;20273;-70
2022/05/19 05:15:34;;;;;;;5.90;4.10;;;20.20;1.00;;;;;;5007121;28;20284;-68
2022/05/19 05:18:00;;;;;;;6.60;4.20;;;20.20;1.00;;;;;;5004328;28;20959;-69
2022/05/19 05:20:26;;;;;;;9.50;4.70;;;20.20;1.00;;;;;;5013910;28;20186;-68
2022/05/19 05:22:52;;;;;;;6.17;4.10;;;20.30;1.00;;;;;;5026605;28;20909;-70
2022/05/19 05:25:17;;;;;;;6.97;4.53;;;20.30;1.00;;;;;;5022065;28;20181;-69
2022/05/19 05:27:43;;;;;;;6.33;4.40;;;20.40;1.00;;;;;;5022400;28;20552;-70
2022/05/19 05:30:11;;;;;;;6.20;4.10;;;20.40;1.00;;;;;;5011666;28;20748;-69
2022/05/19 05:32:38;;;;;;;6.60;4.10;;;20.50;1.00;;;;;;5021457;28;20239;-67
2022/05/19 05:35:05;;;;;;;5.40;4.20;;;20.60;1.00;;;;;;5023330;28;20432;-69
2022/05/19 05:37:31;;;;;;;6.10;3.80;;;20.70;1.00;;;;;;5018671;28;21042;-69
2022/05/19 05:39:56;;;;;;;5.43;4.10;;;20.80;1.00;;;;;;5016345;28;20511;-69
2022/05/19 05:42:22;;;;;;;6.40;4.33;;;21.00;1.00;;;;;;5017415;28;20185;-69
2022/05/19 05:44:48;;;;;;;5.60;3.97;;;20.90;1.00;;;;;;5028226;28;20541;-67
2022/05/19 05:47:14;;;;;;;7.60;3.87;;;21.00;1.00;;;;;;5014158;28;20205;-69
2022/05/19 05:49:40;;;;;;;5.47;4.10;;;21.00;1.00;;;;;;5006874;28;20432;-69
2022/05/19 05:52:06;;;;;;;7.13;3.93;;;21.30;1.00;;;;;;5004191;28;20200;-69
2022/05/19 05:54:31;;;;;;;6.37;3.80;;;21.20;1.00;;;;;;5007619;28;20188;-69
2022/05/19 05:56:57;;;;;;;5.10;3.70;;;21.30;1.00;;;;;;5005715;28;20441;-70
2022/05/19 05:59:23;;;;;;;7.30;4.07;;;21.40;1.00;;;;;;5019376;28;20624;-69
2022/05/19 06:01:49;;;;;;;4.80;3.47;;;21.40;1.00;;;;;;5015038;28;20525;-69
2022/05/19 06:04:15;;;;;;;6.23;4.03;;;21.50;1.00;;;;;;5021057;28;20519;-69
2022/05/19 06:06:40;;;;;;;6.43;3.90;;;21.50;1.00;;;;;;5014065;28;20181;-68
2022/05/19 06:09:06;;;;;;;5.10;3.60;;;21.50;1.00;;;;;;5019714;28;20811;-69
2022/05/19 06:11:32;;;;;;;6.27;4.00;;;21.50;1.00;;;;;;5013725;28;20582;-69
2022/05/19 06:13:57;;;;;;;5.93;3.63;;;21.60;1.00;;;;;;5020540;28;20575;-70
2022/05/19 06:16:23;;;;;;;7.33;3.50;;;21.70;1.00;;;;;;5019428;28;20968;-69
2022/05/19 06:18:48;;;;;;;7.00;3.70;;;21.70;1.00;;;;;;5019116;28;20201;-69
2022/05/19 06:21:14;;;;;;;6.93;3.73;;;21.60;1.00;;;;;;5022410;28;20213;-69
2022/05/19 06:23:39;;;;;;;7.27;4.27;;;21.60;1.00;;;;;;5013499;28;20274;-69
2022/05/19 06:26:05;;;;;;;7.70;4.50;;;21.70;1.00;;;;;;5025143;28;20655;-70
2022/05/19 06:28:31;;;;;;;6.20;4.07;;;21.80;1.00;;;;;;5015137;28;20205;-69
2022/05/19 06:30:59;;;;;;;8.93;4.00;;;21.90;1.00;;;;;;5027228;28;20523;-70
2022/05/19 06:33:27;;;;;;;6.27;3.50;;;21.90;1.00;;;;;;5019669;28;20243;-69
2022/05/19 06:35:52;;;;;;;6.73;4.10;;;22.00;1.00;;;;;;5018857;28;20447;-70
2022/05/19 06:38:18;;;;;;;5.63;3.77;;;22.10;1.00;;;;;;5020721;28;20456;-70
2022/05/19 06:40:44;;;;;;;8.07;3.90;;;22.10;1.00;;;;;;5021051;28;20209;-69
2022/05/19 06:43:13;;;;;;;11.83;4.00;;;22.20;1.00;;;;;;5024835;28;20513;-69
2022/05/19 06:45:39;;;;;;;12.33;4.50;;;22.40;1.00;;;;;;5019980;28;20609;-70
2022/05/19 06:48:05;;;;;;;10.20;4.23;;;22.50;1.00;;;;;;5024476;28;20566;-69
2022/05/19 06:50:31;;;;;;;5.97;4.03;;;22.50;1.00;;;;;;5021862;28;20514;-69
2022/05/19 06:53:03;;;;;;;6.93;3.80;;;22.60;1.00;;;;;;5019221;28;20482;-69
2022/05/19 06:55:31;;;;;;;6.17;4.00;;;22.90;1.00;;;;;;5024423;28;20173;-69
2022/05/19 06:57:57;;;;;;;6.23;3.90;;;23.20;1.00;;;;;;5016209;28;20838;-70
2022/05/19 07:00:24;;;;;;;7.40;3.77;;;23.30;1.00;;;;;;5015306;28;20600;-72
2022/05/19 07:02:53;;;;;;;6.03;4.00;;;23.30;1.00;;;;;;5017469;28;20195;-71
2022/05/19 07:05:22;;;;;;;7.07;3.57;;;23.40;1.00;;;;;;5023240;28;20494;-69
2022/05/19 07:07:48;;;;;;;6.90;3.87;;;23.60;1.00;;;;;;5029515;28;20467;-71
2022/05/19 07:10:21;;;;;;;6.03;3.77;;;23.50;1.00;;;;;;5021495;28;20550;-70
2022/05/19 07:12:46;;;;;;;7.93;3.83;;;23.60;1.00;;;;;;5028646;28;20256;-71
2022/05/19 07:15:14;;;;;;;6.40;3.70;;;23.70;1.00;;;;;;5024273;28;20535;-71
2022/05/19 07:17:40;;;;;;;8.53;3.50;;;24.00;1.00;;;;;;5024225;28;20266;-72
2022/05/19 07:22:51;;;;;;;3.83;3.30;;;24.30;1.00;;;;;;5026350;28;20271;-72
2022/05/19 07:25:17;;;;;;;9.33;3.70;;;24.40;1.00;;;;;;5022858;28;20460;-71
2022/05/19 07:27:42;;;;;;;8.43;3.70;;;24.80;1.00;;;;;;5013503;28;20698;-72
2022/05/19 07:30:09;;;;;;;4.50;3.40;;;25.00;1.00;;;;;;5028519;28;20424;-71
2022/05/19 07:32:35;;;;;;;6.70;3.87;;;25.20;1.00;;;;;;5008829;28;20177;-72
2022/05/19 07:35:02;;;;;;;5.90;3.70;;;25.30;1.00;;;;;;5030953;28;20420;-73
2022/05/19 07:37:27;;;;;;;5.40;3.60;;;25.50;1.00;;;;;;5021035;28;20456;-70
2022/05/19 07:39:54;;;;;;;5.97;3.50;;;25.80;1.00;;;;;;5030100;28;20427;-70
2022/05/19 07:42:20;;;;;;;5.30;4.03;;;25.80;1.00;;;;;;5025549;28;20204;-70
2022/05/19 07:44:46;;;;;;;4.83;3.60;;;25.60;1.00;;;;;;5018359;28;20439;-70
2022/05/19 07:47:14;;;;;;;9.53;4.10;;;25.70;1.00;;;;;;5017023;28;20494;-70
2022/05/19 07:49:40;;;;;;;7.73;3.80;;;25.70;1.00;;;;;;5027694;28;20520;-69
2022/05/19 07:52:07;;;;;;;4.80;3.50;;;25.80;1.00;;;;;;5023131;28;20527;-69
2022/05/19 07:54:33;;;;;;;5.10;3.40;;;26.10;1.00;;;;;;5029326;28;20239;-69
2022/05/19 07:56:58;;;;;;;8.00;3.90;;;26.30;1.00;;;;;;5028932;28;20644;-69
2022/05/19 07:59:24;;;;;;;17.93;4.00;;;26.20;1.00;;;;;;5030701;28;20404;-70
2022/05/19 08:01:51;;;;;;;6.47;4.23;;;26.30;1.00;;;;;;5027412;28;20566;-69
2022/05/19 08:04:17;;;;;;;8.77;4.00;;;26.50;1.00;;;;;;5028857;28;20253;-70
2022/05/19 08:06:43;;;;;;;7.13;4.00;;;26.80;1.00;;;;;;5030171;28;20408;-68
2022/05/19 08:11:54;;;;;;;5.73;3.80;;;27.20;1.00;;;;;;5029673;28;20415;-69
2022/05/19 08:17:07;;;;;;;9.20;4.47;;;27.60;1.00;;;;;;5029656;28;20266;-70
2022/05/19 08:19:33;;;;;;;7.93;3.40;;;26.70;1.00;;;;;;5028877;28;20173;-69
2022/05/19 08:21:58;;;;;;;5.73;3.73;;;27.40;1.00;;;;;;5028755;28;20592;-69
2022/05/19 08:24:26;;;;;;;9.23;3.83;;;27.70;1.00;;;;;;5029826;28;20647;-69
2022/05/19 08:26:52;;;;;;;6.67;3.83;;;28.20;1.00;;;;;;5029899;28;20238;-69
2022/05/19 08:29:19;;;;;;;7.57;4.03;;;28.30;1.00;;;;;;5028681;28;20591;-70
2022/05/19 08:31:45;;;;;;;6.70;4.00;;;28.50;1.00;;;;;;5028474;28;20161;-68
2022/05/19 08:34:13;;;;;;;11.97;3.90;;;28.50;1.00;;;;;;5025533;28;20596;-70
2022/05/19 08:36:40;;;;;;;6.97;3.87;;;28.80;1.00;;;;;;5028687;28;20260;-69
2022/05/19 08:39:05;;;;;;;9.03;4.43;;;28.80;1.00;;;;;;5029308;28;20165;-69
2022/05/19 08:41:36;;;;;;;7.97;4.03;;;28.80;1.00;;;;;;5029100;28;20187;-70
2022/05/19 08:44:08;;;;;;;6.10;4.00;;;28.90;1.00;;;;;;5029600;28;20169;-70
2022/05/19 08:46:39;;;;;;;6.03;4.40;;;29.40;1.00;;;;;;5019993;28;20198;-70
2022/05/19 08:49:18;;;;;;;8.87;4.23;;;30.30;1.00;;;;;;5007100;28;20620;-70
2022/05/19 08:52:07;;;;;;;17.13;4.47;;;30.60;1.00;;;;;;5008673;28;20170;-70
2022/05/19 08:54:35;;;;;;;5.20;3.50;;;31.20;1.00;;;;;;5009560;28;20226;-70
2022/05/19 08:57:22;;;;;;;11.00;3.70;;;31.00;1.00;;;;;;5008095;28;20568;-70
2022/05/19 09:00:06;;;;;;;5.18;3.55;;;31.40;1.00;;;;;;5009713;28;20515;-70
2022/05/19 09:03:01;;;;;;;6.78;3.70;;;32.10;1.00;;;;;;5006336;28;20174;-71
2022/05/19 09:05:36;;;;;;;5.30;3.50;;;32.80;1.00;;;;;;5008552;28;20211;-70
2022/05/19 09:08:32;;;;;;;6.18;3.72;;;33.40;1.00;;;;;;5020005;28;20196;-70
2022/05/19 09:11:08;;;;;;;7.57;3.70;;;34.00;1.00;;;;;;5027585;28;20760;-70
2022/05/19 09:14:18;;;;;;;6.63;3.92;;;33.90;1.00;;;;;;5028741;28;20161;-70
2022/05/19 09:16:43;;;;;;;6.82;3.70;;;34.00;1.00;;;;;;5027197;28;20600;-69
2022/05/19 09:19:28;;;;;;;6.90;3.30;;;34.10;1.00;;;;;;5027000;28;20218;-70
2022/05/19 09:22:07;;;;;;;6.53;3.20;;;34.80;1.00;;;;;;5026354;28;20173;-70
2022/05/19 09:24:33;;;;;;;7.60;3.65;;;35.00;1.00;;;;;;5027605;28;20197;-71
2022/05/19 09:27:01;;;;;;;4.78;3.35;;;35.70;1.00;;;;;;5028609;28;20196;-70
2022/05/19 09:29:33;;;;;;;5.13;3.70;;;35.60;1.00;;;;;;5029077;28;20620;-70
2022/05/19 09:32:15;;;;;;;7.53;3.80;;;35.40;1.00;;;;;;5027410;28;20184;-70
2022/05/19 09:34:46;;;;;;;8.52;3.97;;;35.70;1.00;;;;;;5028871;28;20171;-70
2022/05/19 09:37:45;;;;;;;6.95;3.67;;;35.40;1.00;;;;;;5027861;28;20197;-71
2022/05/19 09:40:10;;;;;;;11.02;3.13;;;35.70;1.00;;;;;;5027070;28;20235;-70
2022/05/19 09:42:48;;;;;;;7.15;3.78;;;36.50;1.00;;;;;;5027824;28;20170;-71
2022/05/19 09:45:14;;;;;;;8.85;3.97;;;37.10;1.00;;;;;;5028322;28;20369;-71
2022/05/19 09:47:45;;;;;;;7.53;3.50;;;37.40;1.00;;;;;;5027375;28;20315;-71
2022/05/19 09:50:17;;;;;;;6.57;3.80;;;37.10;1.00;;;;;;5028458;28;20715;-71
2022/05/19 09:52:44;;;;;;;5.40;3.33;;;37.10;1.00;;;;;;5026084;28;20173;-70
2022/05/19 09:55:13;;;;;;;5.78;3.58;;;37.20;1.00;;;;;;5024490;28;20265;-70
2022/05/19 09:58:07;;;;;;;5.43;3.53;;;37.10;1.00;;;;;;5024499;28;20203;-70
2022/05/19 10:00:46;;;;;;;6.00;3.60;;;37.90;1.00;;;;;;5027555;28;20640;-71
2022/05/19 10:03:48;;;;;;;6.45;4.10;;;38.20;1.00;;;;;;5026587;28;20173;-70
2022/05/19 10:06:34;;;;;;;4.95;3.75;;;38.60;1.00;;;;;;5005562;28;20181;-70
2022/05/19 10:09:10;;;;;;;8.43;3.50;;;37.70;1.00;;;;;;5027684;28;20212;-69
2022/05/19 10:11:53;;;;;;;5.93;3.63;;;39.10;1.00;;;;;;5026274;28;20168;-71
2022/05/19 10:14:30;;;;;;;5.72;3.80;;;39.60;1.00;;;;;;5026815;28;20547;-71
2022/05/19 10:17:32;;;;;;;7.18;3.28;;;38.40;1.00;;;;;;5027585;28;20188;-71
2022/05/19 10:20:16;;;;;;;4.60;3.50;;;38.50;1.00;;;;;;5028491;28;20167;-71
2022/05/19 10:22:57;;;;;;;6.78;3.65;;;38.90;1.00;;;;;;5025320;28;20230;-71
2022/05/19 10:25:50;;;;;;;6.72;3.50;;;39.20;1.00;;;;;;5028519;28;20657;-71
2022/05/19 10:31:18;;;;;;;7.00;3.70;;;39.90;1.00;;;;;;5026588;28;20543;-70
2022/05/19 10:33:55;;;;;;;5.90;3.25;;;40.10;1.00;;;;;;5023850;28;20177;-69
2022/05/19 10:36:26;;;;;;;7.38;3.70;;;40.80;1.00;;;;;;5028921;28;20169;-71
2022/05/19 10:39:19;;;;;;;13.02;3.88;;;41.10;1.00;;;;;;5031308;28;20227;-70
2022/05/19 10:42:03;;;;;;;6.03;3.80;;;41.80;1.00;;;;;;5029530;28;20192;-71
2022/05/19 10:45:00;;;;;;;6.05;3.90;;;42.00;1.00;;;;;;5013021;28;20329;-71
2022/05/19 10:47:38;;;;;;;4.93;3.45;;;42.70;1.00;;;;;;5010690;28;20297;-71
2022/05/19 10:50:20;;;;;;;5.65;3.72;;;42.50;1.00;;;;;;5010479;28;20182;-70
2022/05/19 10:52:58;;;;;;;6.80;3.92;;;42.50;1.00;;;;;;5011666;28;20165;-71
2022/05/19 10:55:53;;;;;;;4.53;3.40;;;42.70;1.00;;;;;;5011365;28;20269;-71
2022/05/19 10:58:34;;;;;;;4.60;4.00;;;43.10;1.00;;;;;;5011426;28;20574;-71
2022/05/19 11:01:23;;;;;;;6.47;3.50;;;43.40;1.00;;;;;;5009511;28;20202;-70
2022/05/19 11:04:25;;;;;;;4.97;3.78;;;43.40;1.00;;;;;;5010804;28;20177;-71
2022/05/19 11:07:23;;;;;;;12.70;4.45;;;41.50;1.00;;;;;;5021414;28;20571;-71
2022/05/19 11:09:54;;;;;;;7.20;3.88;;;41.70;1.00;;;;;;5030871;28;20219;-71
2022/05/19 11:12:58;;;;;;;7.47;3.97;;;41.40;1.00;;;;;;5030429;28;20181;-71
2022/05/19 11:15:43;;;;;;;6.72;3.83;;;42.10;1.00;;;;;;5031179;28;20254;-71
2022/05/19 11:18:20;;;;;;;8.02;4.35;;;42.40;1.00;;;;;;5028757;28;20197;-71
2022/05/19 11:21:12;;;;;;;9.15;4.30;;;41.70;1.00;;;;;;5030708;28;20180;-71
2022/05/19 11:23:49;;;;;;;11.63;4.72;;;41.40;1.00;;;;;;5031176;28;20530;-71
2022/05/19 11:26:24;;;;;;;15.73;4.53;;;41.40;1.00;;;;;;5031152;28;20686;-71
2022/05/19 11:29:16;;;;;;;6.25;4.03;;;42.00;1.00;;;;;;5030826;28;20247;-71
2022/05/19 11:32:03;;;;;;;9.98;4.63;;;41.20;1.00;;;;;;5029903;28;20193;-70
2022/05/19 11:34:41;;;;;;;24.13;5.18;;;41.10;1.00;;;;;;5030596;28;20493;-71
2022/05/19 11:37:30;;;;;;;11.75;4.55;;;41.40;1.00;;;;;;5030247;28;20354;-71
2022/05/19 11:40:17;;;;;;;6.13;4.35;;;41.10;1.00;;;;;;5030340;28;20677;-71
2022/05/19 11:43:23;;;;;;;9.15;4.30;;;41.60;1.00;;;;;;5030041;28;20601;-71
2022/05/19 11:46:12;;;;;;;9.13;4.43;;;41.70;1.00;;;;;;5029184;28;20216;-71
2022/05/19 11:57:56;;;;;;;5.20;4.07;;;42.00;1.00;;;;;;5025626;28;20263;-70
2022/05/19 12:00:36;;;;;;;4.93;4.20;;;40.80;1.00;;;;;;5010760;28;20675;-71
2022/05/19 12:03:13;;;;;;;5.88;4.13;;;41.00;1.00;;;;;;5008979;28;20169;-71
2022/05/19 12:05:53;;;;;;;10.65;4.35;;;41.30;1.00;;;;;;5008886;28;20240;-69
2022/05/19 12:08:35;;;;;;;6.38;4.10;;;41.70;1.00;;;;;;5008995;28;20201;-70
2022/05/19 12:11:18;;;;;;;8.88;4.20;;;42.10;1.00;;;;;;5008111;28;20220;-71
2022/05/19 12:14:10;;;;;;;11.88;4.40;;;43.30;1.00;;;;;;5010286;28;20170;-71
2022/05/19 12:16:52;;;;;;;4.93;3.60;;;43.30;1.00;;;;;;5005551;28;20687;-69
2022/05/19 12:19:52;;;;;;;6.32;4.20;;;43.30;1.00;;;;;;5010384;28;20513;-71
2022/05/19 12:22:30;;;;;;;6.75;3.70;;;44.00;1.00;;;;;;5008894;28;20228;-71
2022/05/19 12:25:07;;;;;;;12.65;4.07;;;44.50;1.00;;;;;;5009924;28;20176;-71
2022/05/19 12:27:36;;;;;;;5.97;4.15;;;44.60;1.00;;;;;;5009695;28;20252;-71
2022/05/19 12:33:32;;;;;;;6.72;4.00;;;42.70;1.00;;;;;;4998504;28;20177;-71
2022/05/19 12:36:11;;;;;;;11.95;4.15;;;42.30;1.00;;;;;;5029311;28;20201;-71
2022/05/19 12:38:45;;;;;;;10.45;4.72;;;42.10;1.00;;;;;;5028052;28;20193;-71
2022/05/19 12:41:36;;;;;;;9.80;4.20;;;41.60;1.00;;;;;;5021833;28;20597;-71
2022/05/19 12:44:38;;;;;;;8.27;4.30;;;41.60;1.00;;;;;;5010423;28;20173;-70
2022/05/19 12:47:08;;;;;;;6.55;3.83;;;40.40;1.00;;;;;;5015089;28;20298;-71
2022/05/19 12:49:36;;;;;;;11.00;4.57;;;39.40;1.00;;;;;;5028190;28;20219;-70
2022/05/19 12:52:11;;;;;;;8.63;4.47;;;39.90;1.00;;;;;;5026631;28;20680;-71
2022/05/19 12:55:08;;;;;;;9.15;4.25;;;41.40;1.00;;;;;;5029841;28;20252;-71
2022/05/19 12:57:34;;;;;;;7.15;5.03;;;41.70;1.00;;;;;;5028802;28;20276;-71
2022/05/19 13:00:36;;;;;;;7.53;4.15;;;42.40;1.00;;;;;;5029606;28;20169;-71
2022/05/19 13:03:04;;;;;;;7.00;4.40;;;43.10;1.00;;;;;;5015700;28;20185;-72
2022/05/19 13:05:53;;;;;;;8.82;4.03;;;42.80;1.00;;;;;;5029364;28;20271;-71
2022/05/19 13:08:37;;;;;;;9.15;4.13;;;41.60;1.00;;;;;;5027067;28;20276;-71
2022/05/19 13:11:16;;;;;;;9.00;4.80;;;40.00;1.00;;;;;;5028522;28;20280;-69
2022/05/19 13:13:51;;;;;;;7.35;4.50;;;39.70;1.00;;;;;;5027279;28;20173;-71
2022/05/19 13:16:18;;;;;;;15.70;5.45;;;41.10;1.00;;;;;;5027268;28;20168;-71
2022/05/19 13:18:50;;;;;;;12.98;4.25;;;41.90;1.00;;;;;;5027901;28;20221;-71
2022/05/19 13:21:26;;;;;;;6.28;4.50;;;42.10;1.00;;;;;;5027786;28;20256;-71
2022/05/19 13:23:52;;;;;;;7.63;4.53;;;42.50;1.00;;;;;;5027295;28;20173;-71
2022/05/19 13:26:29;;;;;;;9.38;4.63;;;42.40;1.00;;;;;;5026942;28;20184;-70
2022/05/19 13:31:50;;;;;;;7.80;4.20;;;43.70;1.00;;;;;;5026784;28;20169;-70
2022/05/19 13:34:17;;;;;;;7.07;4.22;;;43.60;1.00;;;;;;5027192;28;20169;-71
2022/05/19 13:36:52;;;;;;;9.65;4.50;;;43.30;1.00;;;;;;5027768;28;20270;-69
2022/05/19 13:39:19;;;;;;;8.10;4.88;;;43.00;1.00;;;;;;5029259;28;20172;-71
2022/05/19 13:41:51;;;;;;;7.78;4.32;;;42.60;1.00;;;;;;5024456;28;20612;-70
2022/05/19 13:44:25;;;;;;;7.18;4.35;;;42.80;1.00;;;;;;5028673;28;20283;-71
2022/05/19 13:46:51;;;;;;;6.05;4.18;;;42.80;1.00;;;;;;5025811;28;20193;-70
2022/05/19 13:49:21;;;;;;;9.95;4.55;;;43.00;1.00;;;;;;5028363;28;20267;-71